sensor_id;sensor_type;location;lat;lon;timestamp;P1;durP1;ratioP1;P2;durP2;ratioP2
3597;SDS011;1813;52.016;8.714;2023-03-24T00:02:27;5.00;;;2.77;;
3597;SDS011;1813;52.016;8.714;2023-03-24T00:05:07;3.83;;;2.57;;
3597;SDS011;1813;52.016;8.714;2023-03-24T00:07:41;4.73;;;2.80;;
3597;SDS011;1813;52.016;8.714;2023-03-24T00:10:16;8.03;;;2.90;;
3597;SDS011;1813;52.016;8.714;2023-03-24T00:12:52;8.97;;;3.00;;
3597;SDS011;1813;52.016;8.714;2023-03-24T00:15:28;3.80;;;2.70;;
3597;SDS011;1813;52.016;8.714;2023-03-24T00:18:03;5.13;;;2.80;;
3597;SDS011;1813;52.016;8.714;2023-03-24T00:20:40;5.03;;;3.23;;
3597;SDS011;1813;52.016;8.714;2023-03-24T00:23:15;7.77;;;2.83;;
3597;SDS011;1813;52.016;8.714;2023-03-24T00:25:57;5.23;;;2.77;;
3597;SDS011;1813;52.016;8.714;2023-03-24T00:28:32;6.60;;;2.80;;
3597;SDS011;1813;52.016;8.714;2023-03-24T00:31:11;5.03;;;3.20;;
3597;SDS011;1813;52.016;8.714;2023-03-24T00:33:46;5.40;;;3.00;;
3597;SDS011;1813;52.016;8.714;2023-03-24T00:36:22;4.63;;;3.00;;
3597;SDS011;1813;52.016;8.714;2023-03-24T00:38:58;3.80;;;2.90;;
3597;SDS011;1813;52.016;8.714;2023-03-24T00:41:33;3.80;;;2.60;;
3597;SDS011;1813;52.016;8.714;2023-03-24T00:44:07;7.50;;;3.23;;
3597;SDS011;1813;52.016;8.714;2023-03-24T00:46:50;6.00;;;3.10;;
3597;SDS011;1813;52.016;8.714;2023-03-24T00:49:28;6.13;;;3.00;;
3597;SDS011;1813;52.016;8.714;2023-03-24T00:52:15;5.33;;;2.90;;
3597;SDS011;1813;52.016;8.714;2023-03-24T00:54:52;5.10;;;2.93;;
3597;SDS011;1813;52.016;8.714;2023-03-24T00:57:27;3.70;;;2.77;;
3597;SDS011;1813;52.016;8.714;2023-03-24T01:00:04;9.00;;;2.60;;
3597;SDS011;1813;52.016;8.714;2023-03-24T01:02:46;3.90;;;2.80;;
3597;SDS011;1813;52.016;8.714;2023-03-24T01:05:24;4.37;;;2.73;;
3597;SDS011;1813;52.016;8.714;2023-03-24T01:07:59;3.37;;;2.80;;
3597;SDS011;1813;52.016;8.714;2023-03-24T01:10:36;3.27;;;2.93;;
3597;SDS011;1813;52.016;8.714;2023-03-24T01:13:19;3.60;;;2.70;;
3597;SDS011;1813;52.016;8.714;2023-03-24T01:15:55;3.80;;;2.90;;
3597;SDS011;1813;52.016;8.714;2023-03-24T01:18:31;2.80;;;2.53;;
3597;SDS011;1813;52.016;8.714;2023-03-24T01:21:10;6.50;;;3.20;;
3597;SDS011;1813;52.016;8.714;2023-03-24T01:23:45;5.63;;;2.80;;
3597;SDS011;1813;52.016;8.714;2023-03-24T01:26:19;3.93;;;2.83;;
3597;SDS011;1813;52.016;8.714;2023-03-24T01:28:53;4.40;;;2.87;;
3597;SDS011;1813;52.016;8.714;2023-03-24T01:31:26;3.40;;;2.80;;
3597;SDS011;1813;52.016;8.714;2023-03-24T01:34:03;8.33;;;3.27;;
3597;SDS011;1813;52.016;8.714;2023-03-24T01:36:37;3.30;;;2.73;;
3597;SDS011;1813;52.016;8.714;2023-03-24T01:39:11;4.00;;;2.80;;
3597;SDS011;1813;52.016;8.714;2023-03-24T01:41:45;2.90;;;2.60;;
3597;SDS011;1813;52.016;8.714;2023-03-24T01:44:23;5.20;;;2.93;;
3597;SDS011;1813;52.016;8.714;2023-03-24T01:47:04;4.17;;;2.83;;
3597;SDS011;1813;52.016;8.714;2023-03-24T01:49:43;3.37;;;2.70;;
3597;SDS011;1813;52.016;8.714;2023-03-24T01:52:23;3.63;;;2.70;;
3597;SDS011;1813;52.016;8.714;2023-03-24T01:55:00;3.23;;;2.57;;
3597;SDS011;1813;52.016;8.714;2023-03-24T01:57:37;3.30;;;2.73;;
3597;SDS011;1813;52.016;8.714;2023-03-24T02:00:16;4.17;;;2.93;;
3597;SDS011;1813;52.016;8.714;2023-03-24T02:03:11;6.10;;;3.17;;
3597;SDS011;1813;52.016;8.714;2023-03-24T02:05:56;3.00;;;2.40;;
3597;SDS011;1813;52.016;8.714;2023-03-24T02:08:33;2.80;;;2.50;;
3597;SDS011;1813;52.016;8.714;2023-03-24T02:11:12;5.17;;;3.23;;
3597;SDS011;1813;52.016;8.714;2023-03-24T02:13:54;4.40;;;3.00;;
3597;SDS011;1813;52.016;8.714;2023-03-24T02:16:31;4.50;;;3.00;;
3597;SDS011;1813;52.016;8.714;2023-03-24T02:19:31;4.13;;;2.90;;
3597;SDS011;1813;52.016;8.714;2023-03-24T02:29:04;3.43;;;3.13;;
3597;SDS011;1813;52.016;8.714;2023-03-24T02:32:19;7.83;;;3.10;;
3597;SDS011;1813;52.016;8.714;2023-03-24T02:35:16;3.50;;;3.20;;
3597;SDS011;1813;52.016;8.714;2023-03-24T02:38:31;5.67;;;3.30;;
3597;SDS011;1813;52.016;8.714;2023-03-24T02:41:27;3.60;;;2.90;;
3597;SDS011;1813;52.016;8.714;2023-03-24T02:44:07;4.83;;;3.47;;
3597;SDS011;1813;52.016;8.714;2023-03-24T02:46:51;4.17;;;3.10;;
3597;SDS011;1813;52.016;8.714;2023-03-24T02:49:29;7.07;;;3.00;;
3597;SDS011;1813;52.016;8.714;2023-03-24T02:52:15;4.90;;;3.40;;
3597;SDS011;1813;52.016;8.714;2023-03-24T02:54:56;5.20;;;3.33;;
3597;SDS011;1813;52.016;8.714;2023-03-24T02:57:38;3.67;;;3.10;;
3597;SDS011;1813;52.016;8.714;2023-03-24T03:00:37;3.90;;;3.30;;
3597;SDS011;1813;52.016;8.714;2023-03-24T03:03:37;4.90;;;3.10;;
3597;SDS011;1813;52.016;8.714;2023-03-24T03:06:15;4.53;;;3.50;;
3597;SDS011;1813;52.016;8.714;2023-03-24T03:08:53;4.73;;;3.63;;
3597;SDS011;1813;52.016;8.714;2023-03-24T03:11:30;4.80;;;3.27;;
3597;SDS011;1813;52.016;8.714;2023-03-24T03:14:07;3.67;;;3.27;;
3597;SDS011;1813;52.016;8.714;2023-03-24T03:16:45;5.20;;;3.57;;
3597;SDS011;1813;52.016;8.714;2023-03-24T03:19:23;3.33;;;3.03;;
3597;SDS011;1813;52.016;8.714;2023-03-24T03:22:02;4.17;;;3.40;;
3597;SDS011;1813;52.016;8.714;2023-03-24T03:24:41;4.63;;;3.20;;
3597;SDS011;1813;52.016;8.714;2023-03-24T03:27:21;6.93;;;4.00;;
3597;SDS011;1813;52.016;8.714;2023-03-24T03:30:02;4.90;;;3.67;;
3597;SDS011;1813;52.016;8.714;2023-03-24T03:32:44;4.20;;;3.80;;
3597;SDS011;1813;52.016;8.714;2023-03-24T03:35:24;4.00;;;3.70;;
3597;SDS011;1813;52.016;8.714;2023-03-24T03:38:05;4.17;;;3.77;;
3597;SDS011;1813;52.016;8.714;2023-03-24T03:40:48;6.53;;;4.53;;
3597;SDS011;1813;52.016;8.714;2023-03-24T03:43:27;7.10;;;4.07;;
3597;SDS011;1813;52.016;8.714;2023-03-24T03:46:06;5.50;;;4.00;;
3597;SDS011;1813;52.016;8.714;2023-03-24T03:48:42;4.83;;;4.03;;
3597;SDS011;1813;52.016;8.714;2023-03-24T03:51:17;4.60;;;4.20;;
3597;SDS011;1813;52.016;8.714;2023-03-24T03:53:57;5.10;;;3.93;;
3597;SDS011;1813;52.016;8.714;2023-03-24T03:56:35;4.47;;;3.90;;
3597;SDS011;1813;52.016;8.714;2023-03-24T03:59:32;4.60;;;3.70;;
3597;SDS011;1813;52.016;8.714;2023-03-24T04:02:22;5.67;;;4.13;;
3597;SDS011;1813;52.016;8.714;2023-03-24T04:08:13;7.17;;;4.50;;
3597;SDS011;1813;52.016;8.714;2023-03-24T04:14:12;4.60;;;4.20;;
3597;SDS011;1813;52.016;8.714;2023-03-24T04:17:15;5.63;;;3.77;;
3597;SDS011;1813;52.016;8.714;2023-03-24T04:20:04;4.63;;;3.70;;
3597;SDS011;1813;52.016;8.714;2023-03-24T04:22:49;4.30;;;3.90;;
3597;SDS011;1813;52.016;8.714;2023-03-24T04:25:33;4.17;;;3.63;;
3597;SDS011;1813;52.016;8.714;2023-03-24T04:28:20;3.93;;;3.63;;
3597;SDS011;1813;52.016;8.714;2023-03-24T04:31:00;4.20;;;3.77;;
3597;SDS011;1813;52.016;8.714;2023-03-24T04:33:43;4.33;;;3.80;;
3597;SDS011;1813;52.016;8.714;2023-03-24T04:36:21;5.53;;;3.50;;
3597;SDS011;1813;52.016;8.714;2023-03-24T04:39:24;3.97;;;3.57;;
3597;SDS011;1813;52.016;8.714;2023-03-24T04:42:04;4.20;;;3.80;;
3597;SDS011;1813;52.016;8.714;2023-03-24T04:44:42;3.40;;;3.10;;
3597;SDS011;1813;52.016;8.714;2023-03-24T04:47:40;4.43;;;3.63;;
3597;SDS011;1813;52.016;8.714;2023-03-24T04:50:41;4.10;;;3.80;;
3597;SDS011;1813;52.016;8.714;2023-03-24T04:53:23;5.53;;;3.97;;
3597;SDS011;1813;52.016;8.714;2023-03-24T04:56:06;3.80;;;3.50;;
3597;SDS011;1813;52.016;8.714;2023-03-24T04:59:05;3.80;;;3.40;;
3597;SDS011;1813;52.016;8.714;2023-03-24T05:01:43;4.00;;;3.60;;
3597;SDS011;1813;52.016;8.714;2023-03-24T05:04:42;4.30;;;3.90;;
3597;SDS011;1813;52.016;8.714;2023-03-24T05:07:42;3.93;;;3.50;;
3597;SDS011;1813;52.016;8.714;2023-03-24T05:10:18;4.60;;;3.80;;
3597;SDS011;1813;52.016;8.714;2023-03-24T05:12:57;4.10;;;3.20;;
3597;SDS011;1813;52.016;8.714;2023-03-24T05:15:31;6.07;;;3.83;;
3597;SDS011;1813;52.016;8.714;2023-03-24T05:18:21;4.73;;;3.90;;
3597;SDS011;1813;52.016;8.714;2023-03-24T05:20:55;4.30;;;3.90;;
3597;SDS011;1813;52.016;8.714;2023-03-24T05:23:33;4.03;;;3.73;;
3597;SDS011;1813;52.016;8.714;2023-03-24T05:26:07;4.07;;;3.67;;
3597;SDS011;1813;52.016;8.714;2023-03-24T05:28:55;8.23;;;3.93;;
3597;SDS011;1813;52.016;8.714;2023-03-24T05:31:29;4.40;;;4.00;;
3597;SDS011;1813;52.016;8.714;2023-03-24T05:34:12;5.30;;;4.10;;
3597;SDS011;1813;52.016;8.714;2023-03-24T05:37:18;6.00;;;4.67;;
3597;SDS011;1813;52.016;8.714;2023-03-24T05:39:56;5.70;;;4.27;;
3597;SDS011;1813;52.016;8.714;2023-03-24T05:42:53;5.47;;;4.60;;
3597;SDS011;1813;52.016;8.714;2023-03-24T05:45:29;5.03;;;4.30;;
3597;SDS011;1813;52.016;8.714;2023-03-24T05:48:05;6.30;;;4.70;;
3597;SDS011;1813;52.016;8.714;2023-03-24T05:51:06;5.67;;;4.80;;
3597;SDS011;1813;52.016;8.714;2023-03-24T05:53:40;6.63;;;5.03;;
3597;SDS011;1813;52.016;8.714;2023-03-24T05:56:17;5.47;;;4.80;;
3597;SDS011;1813;52.016;8.714;2023-03-24T05:59:03;5.43;;;4.80;;
3597;SDS011;1813;52.016;8.714;2023-03-24T06:02:03;5.20;;;4.70;;
3597;SDS011;1813;52.016;8.714;2023-03-24T06:05:00;4.60;;;4.20;;
3597;SDS011;1813;52.016;8.714;2023-03-24T06:07:34;5.47;;;4.90;;
3597;SDS011;1813;52.016;8.714;2023-03-24T06:10:08;5.30;;;4.80;;
3597;SDS011;1813;52.016;8.714;2023-03-24T06:12:52;5.57;;;4.17;;
3597;SDS011;1813;52.016;8.714;2023-03-24T06:15:28;6.53;;;5.13;;
3597;SDS011;1813;52.016;8.714;2023-03-24T06:18:16;5.80;;;4.80;;
3597;SDS011;1813;52.016;8.714;2023-03-24T06:20:51;5.53;;;5.03;;
3597;SDS011;1813;52.016;8.714;2023-03-24T06:23:31;5.40;;;4.90;;
3597;SDS011;1813;52.016;8.714;2023-03-24T06:26:13;5.40;;;4.90;;
3597;SDS011;1813;52.016;8.714;2023-03-24T06:28:58;7.67;;;4.53;;
3597;SDS011;1813;52.016;8.714;2023-03-24T06:31:36;6.50;;;4.83;;
3597;SDS011;1813;52.016;8.714;2023-03-24T06:34:10;6.37;;;4.60;;
3597;SDS011;1813;52.016;8.714;2023-03-24T06:36:49;7.33;;;5.40;;
3597;SDS011;1813;52.016;8.714;2023-03-24T06:39:23;5.40;;;4.90;;
3597;SDS011;1813;52.016;8.714;2023-03-24T06:41:57;5.90;;;5.40;;
3597;SDS011;1813;52.016;8.714;2023-03-24T06:44:35;5.90;;;5.30;;
3597;SDS011;1813;52.016;8.714;2023-03-24T06:47:11;6.50;;;5.33;;
3597;SDS011;1813;52.016;8.714;2023-03-24T06:49:45;5.13;;;4.60;;
3597;SDS011;1813;52.016;8.714;2023-03-24T06:52:20;5.50;;;4.70;;
3597;SDS011;1813;52.016;8.714;2023-03-24T06:54:54;2.50;;;2.30;;
3597;SDS011;1813;52.016;8.714;2023-03-24T06:57:29;2.80;;;2.03;;
3597;SDS011;1813;52.016;8.714;2023-03-24T07:00:26;2.77;;;1.30;;
3597;SDS011;1813;52.016;8.714;2023-03-24T07:03:22;1.90;;;1.50;;
3597;SDS011;1813;52.016;8.714;2023-03-24T07:06:19;1.50;;;1.40;;
3597;SDS011;1813;52.016;8.714;2023-03-24T07:08:57;2.60;;;1.43;;
3597;SDS011;1813;52.016;8.714;2023-03-24T07:11:33;3.03;;;1.27;;
3597;SDS011;1813;52.016;8.714;2023-03-24T07:14:07;3.87;;;1.30;;
3597;SDS011;1813;52.016;8.714;2023-03-24T07:16:43;3.40;;;1.47;;
3597;SDS011;1813;52.016;8.714;2023-03-24T07:19:37;4.63;;;1.70;;
3597;SDS011;1813;52.016;8.714;2023-03-24T07:22:37;4.60;;;1.70;;
3597;SDS011;1813;52.016;8.714;2023-03-24T07:25:29;3.10;;;2.10;;
3597;SDS011;1813;52.016;8.714;2023-03-24T07:28:18;3.53;;;2.00;;
3597;SDS011;1813;52.016;8.714;2023-03-24T07:30:52;2.93;;;2.00;;
3597;SDS011;1813;52.016;8.714;2023-03-24T07:33:29;3.83;;;2.10;;
3597;SDS011;1813;52.016;8.714;2023-03-24T07:36:04;5.23;;;2.60;;
3597;SDS011;1813;52.016;8.714;2023-03-24T07:38:41;4.07;;;2.70;;
3597;SDS011;1813;52.016;8.714;2023-03-24T07:41:22;4.40;;;2.40;;
3597;SDS011;1813;52.016;8.714;2023-03-24T07:44:01;5.87;;;2.70;;
3597;SDS011;1813;52.016;8.714;2023-03-24T07:46:43;4.23;;;2.70;;
3597;SDS011;1813;52.016;8.714;2023-03-24T07:49:19;6.63;;;2.93;;
3597;SDS011;1813;52.016;8.714;2023-03-24T07:52:05;7.90;;;3.17;;
3597;SDS011;1813;52.016;8.714;2023-03-24T07:54:45;9.07;;;3.77;;
3597;SDS011;1813;52.016;8.714;2023-03-24T07:57:41;6.07;;;3.40;;
3597;SDS011;1813;52.016;8.714;2023-03-24T08:00:15;9.53;;;4.00;;
3597;SDS011;1813;52.016;8.714;2023-03-24T08:03:11;9.77;;;4.17;;
3597;SDS011;1813;52.016;8.714;2023-03-24T08:06:14;9.23;;;3.97;;
3597;SDS011;1813;52.016;8.714;2023-03-24T08:08:54;8.20;;;4.00;;
3597;SDS011;1813;52.016;8.714;2023-03-24T08:11:27;9.87;;;3.80;;
3597;SDS011;1813;52.016;8.714;2023-03-24T08:14:02;7.93;;;3.80;;
3597;SDS011;1813;52.016;8.714;2023-03-24T08:16:36;6.80;;;3.70;;
3597;SDS011;1813;52.016;8.714;2023-03-24T08:19:11;9.23;;;4.00;;
3597;SDS011;1813;52.016;8.714;2023-03-24T08:21:48;8.17;;;3.80;;
3597;SDS011;1813;52.016;8.714;2023-03-24T08:24:21;9.23;;;3.70;;
3597;SDS011;1813;52.016;8.714;2023-03-24T08:26:55;14.00;;;4.20;;
3597;SDS011;1813;52.016;8.714;2023-03-24T08:29:32;9.57;;;4.07;;
3597;SDS011;1813;52.016;8.714;2023-03-24T08:32:06;11.50;;;3.90;;
3597;SDS011;1813;52.016;8.714;2023-03-24T08:34:40;8.13;;;3.20;;
3597;SDS011;1813;52.016;8.714;2023-03-24T08:37:17;9.10;;;3.53;;
3597;SDS011;1813;52.016;8.714;2023-03-24T08:39:51;9.27;;;3.20;;
3597;SDS011;1813;52.016;8.714;2023-03-24T08:42:27;11.80;;;3.53;;
3597;SDS011;1813;52.016;8.714;2023-03-24T08:45:01;9.13;;;3.70;;
3597;SDS011;1813;52.016;8.714;2023-03-24T08:47:36;7.00;;;3.37;;
3597;SDS011;1813;52.016;8.714;2023-03-24T08:50:10;8.40;;;3.57;;
3597;SDS011;1813;52.016;8.714;2023-03-24T08:52:46;12.73;;;3.90;;
3597;SDS011;1813;52.016;8.714;2023-03-24T08:55:21;13.43;;;4.03;;
3597;SDS011;1813;52.016;8.714;2023-03-24T08:57:55;9.50;;;3.53;;
3597;SDS011;1813;52.016;8.714;2023-03-24T09:00:29;11.00;;;4.00;;
3597;SDS011;1813;52.016;8.714;2023-03-24T09:03:03;11.87;;;3.90;;
3597;SDS011;1813;52.016;8.714;2023-03-24T09:05:36;9.67;;;4.20;;
3597;SDS011;1813;52.016;8.714;2023-03-24T09:08:13;11.77;;;3.47;;
3597;SDS011;1813;52.016;8.714;2023-03-24T09:10:48;11.83;;;3.80;;
3597;SDS011;1813;52.016;8.714;2023-03-24T09:13:22;9.97;;;3.90;;
3597;SDS011;1813;52.016;8.714;2023-03-24T09:15:57;9.80;;;4.70;;
3597;SDS011;1813;52.016;8.714;2023-03-24T09:18:34;12.67;;;4.20;;
3597;SDS011;1813;52.016;8.714;2023-03-24T09:21:07;13.20;;;4.63;;
3597;SDS011;1813;52.016;8.714;2023-03-24T09:23:44;9.23;;;4.03;;
3597;SDS011;1813;52.016;8.714;2023-03-24T09:26:18;8.67;;;4.20;;
3597;SDS011;1813;52.016;8.714;2023-03-24T09:28:52;12.83;;;4.10;;
3597;SDS011;1813;52.016;8.714;2023-03-24T09:31:26;10.07;;;3.60;;
3597;SDS011;1813;52.016;8.714;2023-03-24T09:33:59;6.33;;;3.30;;
3597;SDS011;1813;52.016;8.714;2023-03-24T09:36:33;7.80;;;3.40;;
3597;SDS011;1813;52.016;8.714;2023-03-24T09:39:10;9.23;;;3.40;;
3597;SDS011;1813;52.016;8.714;2023-03-24T09:41:44;8.23;;;3.43;;
3597;SDS011;1813;52.016;8.714;2023-03-24T09:44:21;9.07;;;3.90;;
3597;SDS011;1813;52.016;8.714;2023-03-24T09:46:59;11.87;;;3.73;;
3597;SDS011;1813;52.016;8.714;2023-03-24T09:49:36;8.90;;;3.40;;
3597;SDS011;1813;52.016;8.714;2023-03-24T09:52:14;9.90;;;3.43;;
3597;SDS011;1813;52.016;8.714;2023-03-24T09:54:57;7.63;;;3.10;;
3597;SDS011;1813;52.016;8.714;2023-03-24T09:57:33;8.50;;;3.23;;
3597;SDS011;1813;52.016;8.714;2023-03-24T10:00:16;6.63;;;3.10;;
3597;SDS011;1813;52.016;8.714;2023-03-24T10:02:53;9.73;;;3.60;;
3597;SDS011;1813;52.016;8.714;2023-03-24T10:05:33;11.50;;;4.00;;
3597;SDS011;1813;52.016;8.714;2023-03-24T10:08:14;9.53;;;3.27;;
3597;SDS011;1813;52.016;8.714;2023-03-24T10:10:58;10.23;;;3.57;;
3597;SDS011;1813;52.016;8.714;2023-03-24T10:13:39;7.93;;;3.97;;
3597;SDS011;1813;52.016;8.714;2023-03-24T10:16:26;9.90;;;3.87;;
3597;SDS011;1813;52.016;8.714;2023-03-24T10:19:07;9.50;;;4.00;;
3597;SDS011;1813;52.016;8.714;2023-03-24T10:21:55;9.13;;;3.80;;
3597;SDS011;1813;52.016;8.714;2023-03-24T10:24:35;5.90;;;3.60;;
3597;SDS011;1813;52.016;8.714;2023-03-24T10:27:18;8.47;;;2.97;;
3597;SDS011;1813;52.016;8.714;2023-03-24T10:29:59;9.30;;;3.67;;
3597;SDS011;1813;52.016;8.714;2023-03-24T10:32:39;7.87;;;3.37;;
3597;SDS011;1813;52.016;8.714;2023-03-24T10:35:19;8.40;;;3.63;;
3597;SDS011;1813;52.016;8.714;2023-03-24T10:37:57;9.70;;;3.43;;
3597;SDS011;1813;52.016;8.714;2023-03-24T10:40:33;10.23;;;3.77;;
3597;SDS011;1813;52.016;8.714;2023-03-24T10:43:09;6.90;;;3.53;;
3597;SDS011;1813;52.016;8.714;2023-03-24T10:45:45;9.60;;;3.80;;
3597;SDS011;1813;52.016;8.714;2023-03-24T10:48:34;8.80;;;3.70;;
3597;SDS011;1813;52.016;8.714;2023-03-24T10:51:15;11.63;;;3.63;;
3597;SDS011;1813;52.016;8.714;2023-03-24T10:53:50;7.97;;;2.90;;
3597;SDS011;1813;52.016;8.714;2023-03-24T10:56:43;14.53;;;3.50;;
3597;SDS011;1813;52.016;8.714;2023-03-24T10:59:22;7.90;;;3.40;;
3597;SDS011;1813;52.016;8.714;2023-03-24T11:02:02;13.97;;;3.60;;
3597;SDS011;1813;52.016;8.714;2023-03-24T11:04:48;13.93;;;3.27;;
3597;SDS011;1813;52.016;8.714;2023-03-24T11:07:27;6.87;;;2.30;;
3597;SDS011;1813;52.016;8.714;2023-03-24T11:10:05;6.57;;;2.60;;
3597;SDS011;1813;52.016;8.714;2023-03-24T11:12:58;7.50;;;3.37;;
3597;SDS011;1813;52.016;8.714;2023-03-24T11:15:39;7.70;;;2.67;;
3597;SDS011;1813;52.016;8.714;2023-03-24T11:18:26;10.03;;;2.93;;
3597;SDS011;1813;52.016;8.714;2023-03-24T11:21:00;9.67;;;2.70;;
3597;SDS011;1813;52.016;8.714;2023-03-24T11:23:37;7.00;;;2.70;;
3597;SDS011;1813;52.016;8.714;2023-03-24T11:26:14;8.47;;;2.80;;
3597;SDS011;1813;52.016;8.714;2023-03-24T11:28:51;8.07;;;2.80;;
3597;SDS011;1813;52.016;8.714;2023-03-24T11:31:31;13.30;;;2.97;;
3597;SDS011;1813;52.016;8.714;2023-03-24T11:34:08;16.80;;;2.73;;
3597;SDS011;1813;52.016;8.714;2023-03-24T11:36:46;10.00;;;3.13;;
3597;SDS011;1813;52.016;8.714;2023-03-24T11:39:23;4.57;;;2.50;;
3597;SDS011;1813;52.016;8.714;2023-03-24T11:42:01;10.70;;;2.80;;
3597;SDS011;1813;52.016;8.714;2023-03-24T11:44:41;7.60;;;2.43;;
3597;SDS011;1813;52.016;8.714;2023-03-24T11:47:26;11.70;;;2.60;;
3597;SDS011;1813;52.016;8.714;2023-03-24T11:50:12;8.53;;;2.90;;
3597;SDS011;1813;52.016;8.714;2023-03-24T11:52:51;6.23;;;2.53;;
3597;SDS011;1813;52.016;8.714;2023-03-24T11:55:29;11.40;;;3.00;;
3597;SDS011;1813;52.016;8.714;2023-03-24T11:58:10;12.20;;;3.13;;
3597;SDS011;1813;52.016;8.714;2023-03-24T12:00:50;8.23;;;2.90;;
3597;SDS011;1813;52.016;8.714;2023-03-24T12:03:38;10.70;;;2.90;;
3597;SDS011;1813;52.016;8.714;2023-03-24T12:06:29;7.17;;;3.00;;
3597;SDS011;1813;52.016;8.714;2023-03-24T12:09:16;8.80;;;2.70;;
3597;SDS011;1813;52.016;8.714;2023-03-24T12:12:09;6.20;;;3.30;;
3597;SDS011;1813;52.016;8.714;2023-03-24T12:15:02;7.43;;;2.53;;
3597;SDS011;1813;52.016;8.714;2023-03-24T12:17:51;9.03;;;3.20;;
3597;SDS011;1813;52.016;8.714;2023-03-24T12:20:41;6.97;;;2.83;;
3597;SDS011;1813;52.016;8.714;2023-03-24T12:23:24;9.13;;;3.00;;
3597;SDS011;1813;52.016;8.714;2023-03-24T12:26:07;8.77;;;3.00;;
3597;SDS011;1813;52.016;8.714;2023-03-24T12:29:03;6.80;;;2.70;;
3597;SDS011;1813;52.016;8.714;2023-03-24T12:31:52;9.93;;;3.10;;
3597;SDS011;1813;52.016;8.714;2023-03-24T12:34:51;10.50;;;3.27;;
3597;SDS011;1813;52.016;8.714;2023-03-24T12:37:40;7.70;;;2.70;;
3597;SDS011;1813;52.016;8.714;2023-03-24T12:40:29;4.70;;;2.40;;
3597;SDS011;1813;52.016;8.714;2023-03-24T12:43:18;9.47;;;2.70;;
3597;SDS011;1813;52.016;8.714;2023-03-24T12:46:04;7.30;;;2.90;;
3597;SDS011;1813;52.016;8.714;2023-03-24T12:51:59;7.20;;;2.73;;
3597;SDS011;1813;52.016;8.714;2023-03-24T12:54:52;6.43;;;2.60;;
3597;SDS011;1813;52.016;8.714;2023-03-24T12:57:34;8.00;;;2.93;;
3597;SDS011;1813;52.016;8.714;2023-03-24T13:00:12;14.20;;;3.47;;
3597;SDS011;1813;52.016;8.714;2023-03-24T13:02:51;10.50;;;2.93;;
3597;SDS011;1813;52.016;8.714;2023-03-24T13:05:28;7.40;;;3.10;;
3597;SDS011;1813;52.016;8.714;2023-03-24T13:08:04;6.83;;;2.80;;
3597;SDS011;1813;52.016;8.714;2023-03-24T13:10:49;6.07;;;2.63;;
3597;SDS011;1813;52.016;8.714;2023-03-24T13:13:27;9.90;;;2.93;;
3597;SDS011;1813;52.016;8.714;2023-03-24T13:16:05;10.97;;;3.83;;
3597;SDS011;1813;52.016;8.714;2023-03-24T13:18:44;8.77;;;3.07;;
3597;SDS011;1813;52.016;8.714;2023-03-24T13:21:22;7.33;;;3.13;;
3597;SDS011;1813;52.016;8.714;2023-03-24T13:23:59;7.00;;;2.90;;
3597;SDS011;1813;52.016;8.714;2023-03-24T13:26:41;8.10;;;2.80;;
3597;SDS011;1813;52.016;8.714;2023-03-24T13:32:34;10.00;;;3.30;;
3597;SDS011;1813;52.016;8.714;2023-03-24T13:35:13;9.03;;;2.60;;
3597;SDS011;1813;52.016;8.714;2023-03-24T13:37:52;6.87;;;2.70;;
3597;SDS011;1813;52.016;8.714;2023-03-24T13:40:32;5.53;;;2.10;;
3597;SDS011;1813;52.016;8.714;2023-03-24T13:43:16;4.63;;;2.33;;
3597;SDS011;1813;52.016;8.714;2023-03-24T13:45:57;9.60;;;2.40;;
3597;SDS011;1813;52.016;8.714;2023-03-24T13:48:34;6.17;;;2.10;;
3597;SDS011;1813;52.016;8.714;2023-03-24T13:51:15;8.13;;;2.23;;
3597;SDS011;1813;52.016;8.714;2023-03-24T13:53:50;4.20;;;2.07;;
3597;SDS011;1813;52.016;8.714;2023-03-24T13:56:30;4.00;;;2.10;;
3597;SDS011;1813;52.016;8.714;2023-03-24T13:59:16;4.87;;;2.17;;
3597;SDS011;1813;52.016;8.714;2023-03-24T14:08:39;7.77;;;2.37;;
3597;SDS011;1813;52.016;8.714;2023-03-24T14:14:22;9.63;;;2.70;;
3597;SDS011;1813;52.016;8.714;2023-03-24T14:17:05;4.60;;;2.50;;
3597;SDS011;1813;52.016;8.714;2023-03-24T14:19:45;7.60;;;2.40;;
3597;SDS011;1813;52.016;8.714;2023-03-24T14:22:47;4.93;;;2.30;;
3597;SDS011;1813;52.016;8.714;2023-03-24T14:25:22;9.23;;;2.77;;
3597;SDS011;1813;52.016;8.714;2023-03-24T14:31:02;6.53;;;2.70;;
3597;SDS011;1813;52.016;8.714;2023-03-24T14:33:43;7.40;;;2.50;;
3597;SDS011;1813;52.016;8.714;2023-03-24T14:36:32;5.73;;;2.50;;
3597;SDS011;1813;52.016;8.714;2023-03-24T14:39:10;5.20;;;2.47;;
3597;SDS011;1813;52.016;8.714;2023-03-24T14:41:55;8.20;;;2.20;;
3597;SDS011;1813;52.016;8.714;2023-03-24T14:47:31;5.70;;;2.10;;
3597;SDS011;1813;52.016;8.714;2023-03-24T14:50:09;5.63;;;2.07;;
3597;SDS011;1813;52.016;8.714;2023-03-24T14:52:50;6.20;;;2.20;;
3597;SDS011;1813;52.016;8.714;2023-03-24T14:55:27;4.97;;;2.33;;
3597;SDS011;1813;52.016;8.714;2023-03-24T14:58:03;7.63;;;2.60;;
3597;SDS011;1813;52.016;8.714;2023-03-24T15:00:50;5.43;;;2.20;;
3597;SDS011;1813;52.016;8.714;2023-03-24T15:03:31;6.17;;;2.70;;
3597;SDS011;1813;52.016;8.714;2023-03-24T15:06:13;5.87;;;2.10;;
3597;SDS011;1813;52.016;8.714;2023-03-24T15:08:49;6.57;;;2.40;;
3597;SDS011;1813;52.016;8.714;2023-03-24T15:11:24;6.90;;;2.40;;
3597;SDS011;1813;52.016;8.714;2023-03-24T15:14:00;6.20;;;2.47;;
3597;SDS011;1813;52.016;8.714;2023-03-24T15:16:35;6.37;;;2.60;;
3597;SDS011;1813;52.016;8.714;2023-03-24T15:19:17;8.60;;;2.37;;
3597;SDS011;1813;52.016;8.714;2023-03-24T15:21:57;14.00;;;2.90;;
3597;SDS011;1813;52.016;8.714;2023-03-24T15:24:34;9.33;;;2.90;;
3597;SDS011;1813;52.016;8.714;2023-03-24T15:27:13;8.70;;;2.93;;
3597;SDS011;1813;52.016;8.714;2023-03-24T15:29:53;7.33;;;2.63;;
3597;SDS011;1813;52.016;8.714;2023-03-24T15:32:28;3.63;;;1.60;;
3597;SDS011;1813;52.016;8.714;2023-03-24T15:35:13;6.67;;;1.90;;
3597;SDS011;1813;52.016;8.714;2023-03-24T15:37:49;3.30;;;1.70;;
3597;SDS011;1813;52.016;8.714;2023-03-24T15:40:38;3.63;;;1.70;;
3597;SDS011;1813;52.016;8.714;2023-03-24T15:43:17;5.03;;;1.87;;
3597;SDS011;1813;52.016;8.714;2023-03-24T15:45:53;5.53;;;2.00;;
3597;SDS011;1813;52.016;8.714;2023-03-24T15:48:30;9.53;;;1.97;;
3597;SDS011;1813;52.016;8.714;2023-03-24T15:51:10;3.97;;;1.70;;
3597;SDS011;1813;52.016;8.714;2023-03-24T15:53:45;4.03;;;1.70;;
3597;SDS011;1813;52.016;8.714;2023-03-24T15:56:28;2.03;;;1.30;;
3597;SDS011;1813;52.016;8.714;2023-03-24T15:59:06;3.57;;;1.43;;
3597;SDS011;1813;52.016;8.714;2023-03-24T16:01:46;3.07;;;1.60;;
3597;SDS011;1813;52.016;8.714;2023-03-24T16:04:20;3.10;;;1.40;;
3597;SDS011;1813;52.016;8.714;2023-03-24T16:06:57;3.70;;;1.40;;
3597;SDS011;1813;52.016;8.714;2023-03-24T16:09:34;2.43;;;1.50;;
3597;SDS011;1813;52.016;8.714;2023-03-24T16:12:10;2.67;;;1.50;;
3597;SDS011;1813;52.016;8.714;2023-03-24T16:14:43;1.73;;;1.23;;
3597;SDS011;1813;52.016;8.714;2023-03-24T16:17:17;1.50;;;1.40;;
3597;SDS011;1813;52.016;8.714;2023-03-24T16:19:51;1.80;;;1.40;;
3597;SDS011;1813;52.016;8.714;2023-03-24T16:22:27;2.03;;;1.40;;
3597;SDS011;1813;52.016;8.714;2023-03-24T16:25:01;2.47;;;1.60;;
3597;SDS011;1813;52.016;8.714;2023-03-24T16:27:35;2.63;;;1.40;;
3597;SDS011;1813;52.016;8.714;2023-03-24T16:30:12;2.57;;;1.70;;
3597;SDS011;1813;52.016;8.714;2023-03-24T16:32:51;3.47;;;2.00;;
3597;SDS011;1813;52.016;8.714;2023-03-24T16:35:25;3.40;;;1.57;;
3597;SDS011;1813;52.016;8.714;2023-03-24T16:38:01;7.80;;;1.50;;
3597;SDS011;1813;52.016;8.714;2023-03-24T16:40:36;7.87;;;1.70;;
3597;SDS011;1813;52.016;8.714;2023-03-24T16:43:12;3.00;;;1.60;;
3597;SDS011;1813;52.016;8.714;2023-03-24T16:45:49;3.73;;;2.50;;
3597;SDS011;1813;52.016;8.714;2023-03-24T16:48:23;3.60;;;2.40;;
3597;SDS011;1813;52.016;8.714;2023-03-24T16:50:57;4.40;;;2.20;;
3597;SDS011;1813;52.016;8.714;2023-03-24T16:53:33;3.30;;;2.03;;
3597;SDS011;1813;52.016;8.714;2023-03-24T16:56:07;2.80;;;2.00;;
3597;SDS011;1813;52.016;8.714;2023-03-24T16:58:42;5.23;;;2.70;;
3597;SDS011;1813;52.016;8.714;2023-03-24T17:01:17;3.47;;;2.20;;
3597;SDS011;1813;52.016;8.714;2023-03-24T17:03:57;5.13;;;2.50;;
3597;SDS011;1813;52.016;8.714;2023-03-24T17:06:31;3.63;;;2.73;;
3597;SDS011;1813;52.016;8.714;2023-03-24T17:09:08;3.27;;;2.50;;
3597;SDS011;1813;52.016;8.714;2023-03-24T17:11:44;4.27;;;2.20;;
3597;SDS011;1813;52.016;8.714;2023-03-24T17:14:22;3.50;;;2.10;;